Share

Clones, Ireland

2:55 PM IST on April 24, 2014 (GMT +0100)
IMONAGHA2 Elev 486 ft | 54.01 °N, 6.78 °W | Change Station

Current weather conditions updated 6 seconds ago

Scattered Clouds
Scattered Clouds
61.9 °F
Feels Like 61.9 °F
N
5.4
Wind Variable Wind from SE
Gusts 6.9 mph
Sunrise 6:07 AM
Sunset 8:48 PM
Moon Waning Crescent

Today is forecast to be nearly the same temperature as yesterday.

Pressure 30.06 in
Visibility 6.2 miles
Clouds Scattered Clouds 3500 ft
Dew Point 53 °F
Humidity 72%
Rainfall 0.00 in
Snow Depth Not available.
UV 5 out of 16
Pollen Not available.
Air Quality Not available.
Flu Activity Not available.
METAR EGAA 241350Z 20006KT 160V260 9999 SCT035 15/07 Q1018

More Conditions Fewer Conditions

Pressure 30.06 in
Visibility 6.2 miles
Clouds Scattered Clouds 3500 ft
Dew Point 53 °F
Humidity 72%
Rainfall 0.00 in
Snow Depth Not available.
UV 5 out of 16
Pollen Not available.
Air Quality Not available.
Flu Activity Not available.
METAR EGAA 241350Z 20006KT 160V260 9999 SCT035 15/07 Q1018

More Conditions Fewer Conditions

10-Day Weather Forecast

Almanac

Astronomy

Apr. 24, 2014 Rise Set
Actual Time 6:07 AM IST 8:48 PM IST
Civil Twilight 5:27 AM IST 9:28 PM IST
Nautical Twilight 4:35 AM IST 10:20 PM IST
Astronomical Twilight 3:31 AM IST 11:25 PM IST
Moon 3:58 AM IST 3:02 PM IST
Length of Visible Light 16h 00m
Length of Day
14h 40m
Tomorrow will be 4m 5s longer.
Waning Crescent, 25% of the Moon is Illuminated
Today
Waning Crescent
Apr 29
New
May 6
First Quarter
May 14
Full
May 21
Last Quarter

Yesterday's Extremes

Country Highs Country Lows

Community

  • Stacked
    Stacked
  • clouds approaching Red Sox Nation
    clouds approaching Red Sox Nation
  • Balance
    Balance
  • Citysky
    Citysky
  • Nestled In
    Nestled In

WunderPhotos

Upload Photos

1,704,607 photos uploaded!

Nearby

Snow Depth

Not available.

Coastal Water Temperatures

Place Temperature
No Stations Reporting

Earthquake Activity

City Distance Mag. Time & Date
No recent earthquake activity has been reported nearby.
Minimum magnitude displayed is 2.5.

Nearby Weather Stations

Station Location Temp. Dew Point Humidity Wind Precip. Elev Updated Type
Carrickmacross 61.9 °F 53 °F 72% SE  at  5.4 mph 0.00 in / hr 486 ft 2:55 PM IST Normal

Show More Stations Show Fewer Stations

What do you think?

We're not finished. Please let us know what you like, what you don't like, and what you are still missing.